Time;durP1;ratioP1;P1;durP2;ratioP2;P2;SDS_P1;SDS_P2;PMS_P1;PMS_P2;Temp;Humidity;BMP_temperature;BMP_pressure;BME280_temperature;BME280_humidity;BME280_pressure;Samples;Min_cycle;Max_cycle;Signal;HPM_P1;HPM_P2
2023/09/07 00:00:15;;;;;;;;;;;23.50;65.40;;;23.68;44.30;98959.81;4931659;28;114075;-82
2023/09/07 00:02:51;;;;;;;;;;;23.50;65.70;;;23.66;44.28;98955.75;4943250;28;124185;-81
2023/09/07 00:05:23;;;;;;;;;;;23.50;65.80;;;23.63;44.18;98954.53;4950148;28;123977;-81
2023/09/07 00:08:13;;;;;;;;;;;23.40;65.90;;;23.60;44.46;98963.81;4939845;28;114520;-82
2023/09/07 00:10:40;;;;;;;;;;;23.40;66.10;;;23.58;44.50;98963.38;4926654;28;113400;-82
2023/09/07 00:13:31;;;;;;;;;;;23.40;66.20;;;23.53;44.64;98964.56;4961190;28;124787;-83
2023/09/07 00:16:09;;;;;;;;;;;23.40;66.40;;;23.50;44.67;98959.72;4932182;28;123927;-83
2023/09/07 00:22:47;;;;;;;;;;;23.30;66.50;;;23.37;44.68;98964.91;4854697;29;114493;-82
2023/09/07 00:25:28;;;;;;;;;;;23.20;66.80;;;23.35;44.86;98967.31;4813022;29;124878;-82
2023/09/07 00:28:20;;;;;;;;;;;23.20;67.00;;;23.32;45.08;98965.28;4836353;29;124523;-82
2023/09/07 00:30:48;;;;;;;;;;;23.10;67.00;;;23.30;45.04;98961.25;4841164;29;115609;-82
2023/09/07 00:33:15;;;;;;;;;;;23.10;67.10;;;23.30;45.15;98964.06;4854803;29;113922;-82
2023/09/07 00:36:18;;;;;;;;;;;23.10;67.30;;;23.26;45.18;98966.84;4848920;28;124134;-81
2023/09/07 00:38:50;;;;;;;;;;;23.10;67.50;;;23.24;45.19;98963.63;4893145;28;125210;-82
2023/09/07 00:41:26;;;;;;;;;;;23.00;67.50;;;23.21;45.21;98963.59;4934662;28;113860;-81
2023/09/07 00:43:55;;;;;;;;;;;23.00;67.70;;;23.18;45.44;98961.56;4941187;28;113675;-82
2023/09/07 00:46:27;;;;;;;;;;;23.00;67.90;;;23.15;45.36;98960.34;4917756;28;124473;-82
2023/09/07 00:49:00;;;;;;;;;;;22.90;67.80;;;23.12;45.66;98963.94;4918907;28;123726;-82
2023/09/07 00:54:30;;;;;;;;;;;22.90;67.90;;;23.04;45.38;98968.72;4947354;28;113500;-82
2023/09/07 00:57:36;;;;;;;;;;;22.90;68.00;;;22.98;45.48;98967.47;4947828;28;124324;-82
2023/09/07 01:00:09;;;;;;;;;;;22.80;68.10;;;22.94;45.52;98966.59;4928503;28;123982;-81
2023/09/07 01:02:50;;;;;;;;;;;22.80;68.10;;;22.90;45.55;98966.59;4950717;28;114114;-82
2023/09/07 01:05:34;;;;;;;;;;;22.70;68.10;;;22.87;45.70;98963.75;4920210;28;113549;-82
2023/09/07 01:08:43;;;;;;;;;;;22.70;68.20;;;22.82;45.53;98969.75;4928608;28;124577;-82
2023/09/07 01:12:15;;;;;;;;;;;22.70;68.20;;;22.78;45.67;98960.44;4845873;29;124220;-82
2023/09/07 01:15:39;;;;;;;;;;;22.60;68.20;;;22.71;45.56;98976.09;4814603;29;113407;-81
2023/09/07 01:21:54;;;;;;;;;;;22.50;68.30;;;22.66;45.44;98968.00;4706200;29;124857;-82
2023/09/07 01:24:46;;;;;;;;;;;22.40;68.40;;;22.62;45.74;98966.34;4706866;29;122981;-82
2023/09/07 01:28:03;;;;;;;;;;;22.40;68.50;;;22.56;45.76;98967.91;4688500;29;115406;-82
2023/09/07 01:30:35;;;;;;;;;;;22.40;68.70;;;22.56;46.12;98963.09;4639322;30;113560;-82
2023/09/07 01:33:08;;;;;;;;;;;22.40;69.00;;;22.55;46.25;98960.69;4646802;30;125330;-82
2023/09/07 01:35:35;;;;;;;;;;;22.30;69.30;;;22.52;46.60;98967.09;4642389;30;123672;-82
2023/09/07 01:38:35;;;;;;;;;;;22.30;69.60;;;22.48;46.46;98961.41;4637031;30;114944;-82
2023/09/07 01:41:22;;;;;;;;;;;22.30;69.80;;;22.43;46.67;98964.56;4649381;30;114581;-82
2023/09/07 01:43:57;;;;;;;;;;;22.30;70.00;;;22.42;46.99;98957.34;4652038;30;124025;-82
2023/09/07 01:46:56;;;;;;;;;;;22.20;70.20;;;22.38;46.93;98953.66;4637618;30;123732;-81
2023/09/07 01:49:30;;;;;;;;;;;22.20;70.60;;;22.37;47.21;98957.69;4705549;29;113970;-82
2023/09/07 01:51:57;;;;;;;;;;;22.10;70.90;;;22.35;47.23;98963.69;4708437;29;113647;-82
2023/09/07 01:54:29;;;;;;;;;;;22.10;71.20;;;22.33;47.79;98968.13;4721887;29;124148;-81
2023/09/07 01:57:38;;;;;;;;;;;22.10;71.50;;;22.28;47.68;98960.84;4812478;29;124611;-82
2023/09/07 02:00:23;;;;;;;;;;;22.10;71.80;;;22.24;47.57;98974.03;4815576;29;114389;-82
2023/09/07 02:02:58;;;;;;;;;;;22.00;72.00;;;22.22;47.97;98962.38;4833713;29;113700;-82
2023/09/07 02:05:49;;;;;;;;;;;22.00;72.30;;;22.18;47.96;98965.16;4878033;28;124416;-82
2023/09/07 02:11:19;;;;;;;;;;;21.90;72.80;;;22.11;48.77;98967.03;4935433;28;114429;-82
2023/09/07 02:14:08;;;;;;;;;;;21.90;73.10;;;22.08;48.64;98965.81;4955321;28;113582;-82
2023/09/07 02:16:35;;;;;;;;;;;21.90;73.50;;;22.04;48.92;98968.59;4931042;28;124187;-81
2023/09/07 02:19:16;;;;;;;;;;;21.80;73.70;;;22.01;48.85;98977.81;4929611;28;123327;-82
2023/09/07 02:22:04;;;;;;;;;;;21.80;73.90;;;21.96;48.72;98966.91;4937300;28;115962;-82
2023/09/07 02:24:45;;;;;;;;;;;21.70;74.00;;;21.94;48.95;98969.28;4943825;28;114568;-83
2023/09/07 02:27:17;;;;;;;;;;;21.70;74.10;;;21.92;49.16;98962.41;4949013;28;124380;-82
2023/09/07 02:29:43;;;;;;;;;;;21.70;74.20;;;21.91;49.12;98972.06;4947021;28;123857;-82
2023/09/07 02:33:06;;;;;;;;;;;21.70;74.30;;;21.85;48.84;98968.78;4931391;28;114113;-82
2023/09/07 02:35:32;;;;;;;;;;;21.60;74.30;;;21.81;48.59;98962.28;4945933;28;113743;-82
2023/09/07 02:38:10;;;;;;;;;;;21.60;74.20;;;21.77;48.66;98967.09;4948184;28;124195;-82
2023/09/07 02:40:50;;;;;;;;;;;21.60;74.30;;;21.74;48.90;98959.41;4937802;28;123651;-84
2023/09/07 02:43:19;;;;;;;;;;;21.50;74.50;;;21.67;48.87;98962.94;4942389;28;115023;-83
2023/09/07 02:50:10;;;;;;;;;;;21.50;74.80;;;21.57;49.32;98958.81;4912323;28;124708;-82
2023/09/07 02:53:21;;;;;;;;;;;21.40;74.90;;;21.56;49.12;98962.81;4887941;28;123083;-82
2023/09/07 02:55:50;;;;;;;;;;;21.40;75.00;;;21.52;49.53;98961.97;4876601;28;114223;-82
2023/09/07 02:58:16;;;;;;;;;;;21.30;75.20;;;21.53;49.50;98962.75;4894928;28;113758;-83
2023/09/07 03:00:55;;;;;;;;;;;21.30;75.50;;;21.51;49.54;98965.94;4906870;28;123992;-82
2023/09/07 03:03:24;;;;;;;;;;;21.30;75.80;;;21.50;49.78;98955.09;4894737;28;123968;-81
2023/09/07 03:06:29;;;;;;;;;;;21.30;76.00;;;21.47;49.63;98953.06;4890985;28;114283;-82
2023/09/07 03:09:39;;;;;;;;;;;21.20;76.10;;;21.42;50.00;98962.63;4906472;28;113702;-82
2023/09/07 03:12:08;;;;;;;;;;;21.20;76.30;;;21.40;49.92;98959.38;4899209;28;123384;-82
2023/09/07 03:14:46;;;;;;;;;;;21.20;76.70;;;21.38;50.37;98958.94;4917872;28;123993;-82
2023/09/07 03:17:21;;;;;;;;;;;21.10;76.90;;;21.37;50.31;98960.13;4910677;28;115530;-82
2023/09/07 03:19:50;;;;;;;;;;;21.10;77.10;;;21.36;50.50;98958.50;4889422;28;114426;-82
2023/09/07 03:22:17;;;;;;;;;;;21.10;77.40;;;21.36;50.34;98958.50;4901774;28;124504;-83
2023/09/07 03:24:52;;;;;;;;;;;21.10;77.60;;;21.35;50.37;98956.88;4900847;28;123614;-82
2023/09/07 03:27:44;;;;;;;;;;;21.10;77.90;;;21.29;50.91;98947.16;4906745;28;114465;-82
2023/09/07 03:31:05;;;;;;;;;;;21.10;78.30;;;21.09;51.50;98952.91;4913460;28;113554;-82
2023/09/07 03:34:15;;;;;;;;;;;20.90;79.20;;;20.79;52.14;98946.41;4890525;28;123891;-83
2023/09/07 03:36:41;;;;;;;;;;;20.80;79.70;;;20.66;52.52;98949.44;4855079;29;125037;-86
2023/09/07 03:39:21;;;;;;;;;;;20.60;80.10;;;20.57;52.85;98954.50;4852547;29;114389;-85
2023/09/07 03:41:47;;;;;;;;;;;20.50;80.10;;;20.55;52.67;98950.44;4839781;29;113528;-84
2023/09/07 03:44:22;;;;;;;;;;;20.50;80.30;;;20.55;52.70;98959.66;4851955;29;124090;-85
2023/09/07 03:46:49;;;;;;;;;;;20.50;80.60;;;20.57;52.67;98948.06;4822946;29;125150;-83
2023/09/07 03:49:24;;;;;;;;;;;20.40;80.70;;;20.58;52.66;98947.72;4854787;29;114420;-83
2023/09/07 03:52:24;;;;;;;;;;;20.40;81.00;;;20.57;52.73;98948.88;4851510;29;113566;-83
2023/09/07 03:54:51;;;;;;;;;;;20.40;81.20;;;20.58;52.80;98952.50;4839794;29;123204;-82
2023/09/07 03:57:27;;;;;;;;;;;20.40;81.40;;;20.57;53.04;98948.88;4836550;29;123971;-83
2023/09/07 04:00:40;;;;;;;;;;;20.40;81.60;;;20.57;52.64;98951.69;4853246;29;114486;-83
2023/09/07 04:02:46;;;;;;;;;;;20.40;81.80;;;20.55;53.00;98951.25;4838040;29;113357;-83
2023/09/07 04:05:19;;;;;;;;;;;20.30;81.80;;;20.54;52.90;98951.63;4836688;29;124363;-83
2023/09/07 04:07:45;;;;;;;;;;;20.30;82.00;;;20.52;52.57;98944.38;4873953;28;124216;-83
2023/09/07 04:10:17;;;;;;;;;;;20.30;82.10;;;20.53;52.93;98945.19;4870901;28;114578;-83
2023/09/07 04:12:47;;;;;;;;;;;20.30;82.20;;;20.54;52.72;98951.63;4910602;28;114555;-83
2023/09/07 04:15:13;;;;;;;;;;;20.30;82.40;;;20.54;52.75;98949.63;4922456;28;123444;-83
2023/09/07 04:18:04;;;;;;;;;;;20.30;82.30;;;20.53;52.45;98945.19;4949561;28;124064;-83
2023/09/07 04:20:48;;;;;;;;;;;20.30;82.30;;;20.52;52.16;98949.16;4949532;28;114622;-84
2023/09/07 04:23:22;;;;;;;;;;;20.30;82.20;;;20.52;52.29;98947.19;4938625;28;113812;-83
2023/09/07 04:26:10;;;;;;;;;;;20.20;82.10;;;20.52;52.10;98949.16;4962947;28;124158;-84
2023/09/07 04:28:37;;;;;;;;;;;20.20;82.00;;;20.51;52.15;98950.38;4929950;28;123072;-83
2023/09/07 04:33:54;;;;;;;;;;;20.20;82.00;;;20.46;51.95;98951.47;4903567;28;113913;-83
2023/09/07 04:36:23;;;;;;;;;;;20.20;81.90;;;20.45;51.82;98954.69;4891646;28;123908;-82
2023/09/07 04:39:22;;;;;;;;;;;20.20;81.90;;;20.41;52.01;98948.97;4913371;28;123987;-82
2023/09/07 04:42:13;;;;;;;;;;;20.10;81.80;;;20.40;51.86;98949.38;4923453;28;117568;-83
2023/09/07 04:44:40;;;;;;;;;;;20.10;81.90;;;20.39;51.81;98947.72;4919578;28;113710;-83
2023/09/07 04:47:46;;;;;;;;;;;20.10;81.90;;;20.36;51.90;98951.28;4927421;28;123482;-82
2023/09/07 04:50:13;;;;;;;;;;;20.10;82.00;;;20.32;52.07;98951.25;4929736;28;123972;-82
2023/09/07 04:52:48;;;;;;;;;;;20.10;82.20;;;20.29;52.24;98952.81;4929487;28;114469;-82
2023/09/07 04:55:41;;;;;;;;;;;20.10;82.40;;;20.23;52.37;98950.66;4926799;28;113785;-83
2023/09/07 04:58:24;;;;;;;;;;;20.00;82.60;;;20.21;52.48;98948.25;4860797;28;123624;-83
2023/09/07 05:01:21;;;;;;;;;;;20.00;82.80;;;20.17;52.71;98952.97;4912870;28;122945;-81
2023/09/07 05:03:51;;;;;;;;;;;20.00;83.20;;;20.19;52.99;98958.22;4905652;28;115408;-83
2023/09/07 05:06:40;;;;;;;;;;;20.00;83.60;;;20.11;53.20;98957.28;4918048;28;114127;-82
2023/09/07 05:09:41;;;;;;;;;;;19.90;84.00;;;20.02;53.65;98959.53;4928647;28;125750;-82
2023/09/07 05:12:10;;;;;;;;;;;19.80;84.90;;;19.96;54.25;98955.38;4869292;28;124769;-82
2023/09/07 05:14:41;;;;;;;;;;;19.80;85.30;;;19.88;54.48;98959.22;4857142;28;114499;-83
2023/09/07 05:17:11;;;;;;;;;;;19.70;85.80;;;19.79;54.66;98965.88;4863259;28;113475;-82
2023/09/07 05:19:40;;;;;;;;;;;19.60;86.30;;;19.72;54.85;98978.94;4838561;28;123382;-83
2023/09/07 05:22:36;;;;;;;;;;;19.50;86.40;;;19.57;55.74;98975.00;4856191;28;122804;-83
2023/09/07 05:25:15;;;;;;;;;;;19.40;87.90;;;19.39;56.56;98977.44;4871468;28;113760;-83
2023/09/07 05:28:02;;;;;;;;;;;19.20;89.30;;;19.27;56.90;98992.38;4869185;28;114365;-82
2023/09/07 05:30:34;;;;;;;;;;;19.10;89.70;;;19.25;56.72;98985.53;4858841;28;125645;-82
2023/09/07 05:33:28;;;;;;;;;;;19.00;89.80;;;19.29;56.51;98995.66;4868865;28;124397;-84
2023/09/07 05:36:01;;;;;;;;;;;19.10;90.00;;;19.37;56.39;98989.00;4850776;29;114679;-83
2023/09/07 05:38:30;;;;;;;;;;;19.10;90.00;;;19.46;56.35;98991.59;4861399;28;113668;-83
2023/09/07 05:41:27;;;;;;;;;;;19.20;90.10;;;19.53;55.96;98991.75;4855916;28;124369;-83
2023/09/07 05:44:02;;;;;;;;;;;19.20;90.10;;;19.62;55.82;98992.34;4855328;28;124087;-84
2023/09/07 05:46:31;;;;;;;;;;;19.30;90.10;;;19.68;56.11;98990.09;4859128;28;114572;-83
2023/09/07 05:49:12;;;;;;;;;;;19.30;90.40;;;19.66;56.13;98984.03;4922641;28;113776;-83
2023/09/07 05:51:48;;;;;;;;;;;19.30;90.50;;;;;;4922142;28;124074;-82
2023/09/07 05:54:20;;;;;;;;;;;19.30;90.50;;;19.65;56.11;98985.19;4941429;28;124333;-83
2023/09/07 05:57:05;;;;;;;;;;;19.30;90.60;;;19.68;56.11;98986.47;4946150;28;117259;-84
2023/09/07 05:59:46;;;;;;;;;;;19.30;90.60;;;19.77;56.01;98990.69;4924372;28;113879;-83
2023/09/07 06:02:25;;;;;;;;;;;19.40;90.70;;;19.88;56.07;99001.28;4931164;28;124186;-84
2023/09/07 06:04:54;;;;;;;;;;;19.40;90.70;;;19.97;55.66;98999.88;4958798;28;123929;-83
2023/09/07 06:07:20;;;;;;;;;;;19.50;90.70;;;20.06;55.37;98994.84;4949930;28;114846;-83
2023/09/07 06:09:47;;;;;;;;;;;19.60;90.70;;;20.14;55.53;98993.00;4934721;28;113473;-83
2023/09/07 06:15:03;;;;;;;;;;;19.80;90.70;;;20.27;55.17;98994.44;4936715;28;124211;-83
2023/09/07 06:17:34;;;;;;;;;;;19.80;90.50;;;20.36;54.82;98990.59;4935426;28;114960;-82
2023/09/07 06:20:08;;;;;;;;;;;19.90;90.50;;;20.44;54.86;98986.72;4945774;28;113763;-83
2023/09/07 06:23:21;;;;;;;;;;;19.90;90.40;;;20.51;54.63;98986.84;4934204;28;124408;-82
2023/09/07 06:26:31;;;;;;;;;;;20.00;90.50;;;20.54;54.69;98997.34;4942401;28;123831;-82
2023/09/07 06:29:25;;;;;;;;;;;20.10;90.50;;;20.58;54.41;98989.81;4870322;28;115561;-83
2023/09/07 06:31:54;;;;;;;;;;;20.10;90.40;;;20.64;54.09;98993.13;4870241;28;111821;-83
2023/09/07 06:34:21;;;;;;;;;;;20.10;90.40;;;20.64;54.51;98988.31;4838930;28;123253;-83
2023/09/07 06:36:50;;;;;;;;;;;20.10;90.40;;;20.69;54.02;98985.19;4870911;28;123859;-83
2023/09/07 06:42:39;;;;;;;;;;;20.30;90.40;;;20.87;53.51;98987.47;4871184;28;114582;-83
2023/09/07 06:45:05;;;;;;;;;;;20.30;90.20;;;20.96;53.74;98976.78;4867781;28;124197;-83
2023/09/07 06:48:02;;;;;;;;;;;20.40;90.20;;;21.03;53.42;98979.69;4844088;28;122555;-82
2023/09/07 06:50:29;;;;;;;;;;;20.50;90.20;;;21.10;53.51;98985.44;4874492;28;115476;-82
2023/09/07 06:53:09;;;;;;;;;;;20.50;90.10;;;21.13;53.21;98990.28;4872662;28;115036;-82
2023/09/07 06:55:38;;;;;;;;;;;20.50;90.10;;;21.21;53.16;98987.59;4871799;28;124838;-83
2023/09/07 06:58:29;;;;;;;;;;;20.60;90.00;;;21.31;52.95;98992.56;4858520;28;123259;-83
2023/09/07 07:01:02;;;;;;;;;;;20.70;90.30;;;21.42;52.66;98989.94;4871772;28;114453;-82
2023/09/07 07:03:35;;;;;;;;;;;20.80;90.00;;;21.51;52.57;98996.06;4857527;28;114558;-82
2023/09/07 07:06:08;;;;;;;;;;;20.90;89.70;;;21.60;52.46;98997.41;4920723;28;125425;-83
2023/09/07 07:09:02;;;;;;;;;;;21.00;89.60;;;21.67;52.27;99001.50;4933632;28;124638;-83
2023/09/07 07:11:34;;;;;;;;;;;21.00;89.30;;;21.72;51.80;99003.97;4942642;28;114562;-83
2023/09/07 07:14:13;;;;;;;;;;;21.10;89.50;;;21.78;51.79;99006.06;4941497;28;113542;-83
2023/09/07 07:16:42;;;;;;;;;;;21.20;89.30;;;21.89;51.89;99009.00;4943121;28;124544;-83
2023/09/07 07:19:21;;;;;;;;;;;21.30;89.00;;;21.97;51.53;99005.09;4922682;28;124035;-82
2023/09/07 07:22:15;;;;;;;;;;;21.40;88.70;;;22.01;51.39;99010.78;4931222;28;114731;-82
2023/09/07 07:24:59;;;;;;;;;;;21.40;88.40;;;22.07;51.29;99003.59;4943934;28;111770;-83
2023/09/07 07:27:34;;;;;;;;;;;21.50;88.40;;;22.18;51.21;99009.34;4942853;28;124684;-82
2023/09/07 07:30:00;;;;;;;;;;;21.60;88.30;;;22.32;51.06;99011.53;4931002;28;123902;-82
2023/09/07 07:33:04;;;;;;;;;;;21.70;88.20;;;22.42;50.90;99002.38;4931522;28;114626;-82
2023/09/07 07:35:36;;;;;;;;;;;21.80;88.10;;;22.49;50.47;98996.84;4945468;28;115908;-83
2023/09/07 07:38:04;;;;;;;;;;;21.80;87.60;;;22.53;50.21;99002.50;4939536;28;124132;-82
2023/09/07 07:40:40;;;;;;;;;;;21.90;87.50;;;22.61;50.21;98999.34;4950051;28;124513;-81
2023/09/07 07:43:06;;;;;;;;;;;22.00;87.50;;;22.68;50.08;99004.25;4919765;28;113584;-81
2023/09/07 07:45:39;;;;;;;;;;;22.00;87.10;;;22.71;49.64;98993.00;4949307;28;113959;-82
2023/09/07 07:48:14;;;;;;;;;;;22.10;86.90;;;22.76;49.84;98997.47;4931080;28;124397;-82
2023/09/07 07:50:43;;;;;;;;;;;22.10;86.70;;;22.85;49.91;99000.75;4928193;28;123479;-82
2023/09/07 07:53:16;;;;;;;;;;;22.20;86.50;;;22.92;49.54;99003.63;4930955;28;114653;-82
2023/09/07 07:55:46;;;;;;;;;;;22.30;86.40;;;22.99;49.22;99002.09;4943378;28;113947;-81
2023/09/07 07:58:12;;;;;;;;;;;22.40;86.20;;;23.02;49.21;99001.31;4933398;28;124263;-81
2023/09/07 08:00:48;;;;;;;;;;;22.40;85.80;;;23.08;49.19;98994.13;4955404;28;123998;-81
2023/09/07 08:03:43;;;;;;;;;;;22.50;85.80;;;23.15;49.04;98999.78;4931117;28;114419;-83
2023/09/07 08:06:12;;;;;;;;;;;22.60;85.70;;;23.27;48.75;98985.38;4964028;28;113898;-81
2023/09/07 08:08:48;;;;;;;;;;;22.60;85.50;;;23.33;48.40;98991.47;4949361;28;124319;-82
2023/09/07 08:11:35;;;;;;;;;;;22.70;85.20;;;23.38;48.30;98989.06;4936056;28;124656;-82
2023/09/07 08:14:07;;;;;;;;;;;22.80;85.10;;;23.47;48.34;98983.06;4941093;28;115527;-82
2023/09/07 08:16:40;;;;;;;;;;;22.90;85.00;;;23.57;48.24;98981.53;4921032;28;112636;-82
2023/09/07 08:19:34;;;;;;;;;;;23.00;84.90;;;23.66;48.04;98983.97;4922373;28;124221;-82
2023/09/07 08:22:07;;;;;;;;;;;23.00;84.40;;;23.69;47.80;98969.88;4947123;28;124504;-82
2023/09/07 08:24:44;;;;;;;;;;;23.10;84.10;;;23.74;47.63;98972.34;4927157;28;114647;-81
2023/09/07 08:27:16;;;;;;;;;;;23.10;83.90;;;23.78;47.70;98970.34;4943033;28;114350;-82
2023/09/07 08:29:54;;;;;;;;;;;23.20;84.00;;;23.89;47.39;98980.88;4935101;28;123667;-82
2023/09/07 08:32:25;;;;;;;;;;;23.30;83.80;;;23.95;46.98;98973.63;4932879;28;123646;-81
2023/09/07 08:35:17;;;;;;;;;;;23.30;83.70;;;23.99;47.07;98975.28;4937873;28;115496;-82
2023/09/07 08:38:27;;;;;;;;;;;23.40;83.10;;;24.06;46.68;98980.13;4954092;28;115425;-81
2023/09/07 08:40:57;;;;;;;;;;;23.50;82.70;;;24.12;46.30;98984.16;4902787;28;124275;-81
2023/09/07 08:43:31;;;;;;;;;;;23.60;82.10;;;24.15;46.38;98980.56;4908079;28;124164;-82
2023/09/07 08:46:34;;;;;;;;;;;23.60;81.90;;;24.18;46.47;98988.22;4891321;28;114962;-82
2023/09/07 08:49:07;;;;;;;;;;;23.70;81.90;;;24.25;46.20;98979.75;4889110;28;113715;-81
2023/09/07 08:51:37;;;;;;;;;;;23.70;81.70;;;24.32;46.37;98981.00;4881500;28;123580;-82
2023/09/07 08:54:10;;;;;;;;;;;23.80;81.60;;;24.39;46.08;98975.34;4892080;28;123127;-82
2023/09/07 08:56:53;;;;;;;;;;;23.90;81.50;;;24.45;46.09;98973.78;4884137;28;114930;-82
2023/09/07 08:59:22;;;;;;;;;;;24.10;81.60;;;24.51;45.82;98979.84;4907084;28;114167;-81
2023/09/07 09:01:49;;;;;;;;;;;23.90;81.40;;;24.54;45.99;98981.88;4892855;28;124347;-81
2023/09/07 09:04:23;;;;;;;;;;;23.20;80.60;;;24.58;45.72;98972.19;4905670;28;124029;-82
2023/09/07 09:10:33;;;;;;;;;;;24.10;81.30;;;24.57;45.89;98984.69;4893982;28;114488;-82
2023/09/07 09:13:03;;;;;;;;;;;24.00;81.10;;;24.61;45.75;98981.84;4893518;28;124040;-81
2023/09/07 09:15:29;;;;;;;;;;;24.10;81.80;;;24.67;45.54;98975.41;4893336;28;123105;-82
2023/09/07 09:18:27;;;;;;;;;;;24.10;81.00;;;24.71;45.65;98977.41;4941472;28;114467;-81
2023/09/07 09:20:59;;;;;;;;;;;24.20;81.00;;;24.78;46.06;98971.78;4918205;28;114243;-81
2023/09/07 09:23:43;;;;;;;;;;;24.30;80.90;;;24.84;45.54;98964.50;4919837;28;124991;-81
2023/09/07 09:26:13;;;;;;;;;;;24.30;81.00;;;24.90;45.55;98965.69;4916511;28;123989;-81
2023/09/07 09:28:45;;;;;;;;;;;24.30;80.90;;;24.97;45.77;98959.25;4947734;28;115642;-82
2023/09/07 09:31:18;;;;;;;;;;;24.40;80.90;;;25.01;45.65;98960.88;4925201;28;114230;-82
2023/09/07 09:33:57;;;;;;;;;;;24.50;80.90;;;25.05;45.37;98966.50;4938679;28;125020;-81
2023/09/07 09:36:34;;;;;;;;;;;23.40;79.90;;;25.08;45.65;98960.84;4915083;28;123766;-81
2023/09/07 09:39:23;;;;;;;;;;;24.50;80.60;;;25.10;45.52;98952.75;4956423;28;115059;-81
2023/09/07 09:42:08;;;;;;;;;;;24.60;80.60;;;25.17;45.48;98962.47;4931499;28;113300;-82
2023/09/07 09:44:50;;;;;;;;;;;24.70;80.70;;;25.24;45.46;98953.97;4946882;28;124083;-82
2023/09/07 09:47:50;;;;;;;;;;;24.80;80.80;;;25.31;45.21;98948.31;4927931;28;123875;-81
2023/09/07 09:50:37;;;;;;;;;;;24.80;80.60;;;25.32;45.60;98952.75;4932356;28;115167;-81
2023/09/07 09:53:14;;;;;;;;;;;24.80;80.80;;;25.35;45.65;98946.25;4932389;28;113871;-81
2023/09/07 09:56:13;;;;;;;;;;;24.80;80.70;;;25.36;45.63;98942.19;4940619;28;123721;-81
2023/09/07 09:58:44;;;;;;;;;;;24.90;80.80;;;25.40;45.27;98951.50;4908492;28;124048;-81
2023/09/07 10:01:51;;;;;;;;;;;24.90;80.60;;;25.41;45.29;98947.44;4906925;28;114448;-80
2023/09/07 10:04:33;;;;;;;;;;;24.90;80.50;;;25.47;45.75;98945.81;4890698;28;114299;-80
2023/09/07 10:10:41;;;;;;;;;;;25.10;80.80;;;25.56;45.08;98956.72;4875409;28;124553;-81
2023/09/07 10:13:07;;;;;;;;;;;25.10;80.60;;;25.59;45.33;98950.22;4865356;28;115628;-80
2023/09/07 10:15:42;;;;;;;;;;;25.10;80.50;;;25.66;45.40;98943.75;4887253;28;113468;-80
2023/09/07 10:18:18;;;;;;;;;;;25.20;80.40;;;25.71;45.32;98946.13;4887014;28;124789;-81
2023/09/07 10:21:22;;;;;;;;;;;25.20;80.20;;;25.76;44.88;98949.34;4877576;28;123931;-81
2023/09/07 10:23:51;;;;;;;;;;;25.30;80.20;;;25.83;45.17;98948.50;4892839;28;115737;-80
2023/09/07 10:26:21;;;;;;;;;;;25.30;80.50;;;25.89;44.95;98941.22;4881715;28;114818;-80
2023/09/07 10:29:00;;;;;;;;;;;25.30;80.20;;;25.90;44.92;98937.19;4893028;28;124547;-80
2023/09/07 10:31:32;;;;;;;;;;;25.30;80.20;;;25.97;45.09;98937.13;4874395;28;124674;-81
2023/09/07 10:34:43;;;;;;;;;;;25.40;80.30;;;26.06;45.13;98928.19;4893032;28;114612;-81
2023/09/07 10:37:34;;;;;;;;;;;25.50;80.30;;;26.11;44.46;98929.75;4920825;28;113072;-80
2023/09/07 10:40:11;;;;;;;;;;;25.50;79.90;;;26.18;44.71;98929.72;4873628;28;126361;-81
2023/09/07 10:43:00;;;;;;;;;;;25.60;80.20;;;26.21;44.38;98928.88;4880302;28;123411;-82
2023/09/07 10:46:34;;;;;;;;;;;25.70;79.90;;;26.29;44.99;98921.94;4874466;28;113875;-81
2023/09/07 10:49:23;;;;;;;;;;;25.70;80.00;;;26.41;44.48;98918.63;4820377;29;113647;-81
2023/09/07 10:51:49;;;;;;;;;;;25.90;79.90;;;26.54;44.60;98918.16;4800650;29;123359;-81
2023/09/07 10:54:54;;;;;;;;;;;26.00;79.60;;;26.64;43.96;98905.91;4809666;29;124817;-81
2023/09/07 11:01:14;;;;;;;;;;;26.10;79.00;;;26.78;43.71;98904.97;4775997;29;113270;-80
2023/09/07 11:03:54;;;;;;;;;;;26.20;78.70;;;26.84;43.87;98908.97;4762688;29;124985;-81
2023/09/07 11:06:23;;;;;;;;;;;26.30;78.40;;;26.94;43.40;98905.22;4796827;29;122113;-81
2023/09/07 11:09:19;;;;;;;;;;;26.40;78.40;;;27.02;43.50;98897.44;4823107;29;114415;-81
2023/09/07 11:12:24;;;;;;;;;;;26.40;78.00;;;27.12;42.91;98895.72;4825215;29;113401;-81
2023/09/07 11:15:00;;;;;;;;;;;26.60;77.70;;;27.23;43.10;98902.91;4827878;29;123828;-81
2023/09/07 11:17:29;;;;;;;;;;;26.50;77.60;;;27.37;42.82;98895.47;4844805;28;124726;-81
2023/09/07 11:20:06;;;;;;;;;;;26.80;77.60;;;27.48;42.55;98888.41;4859619;28;116009;-81
2023/09/07 11:22:47;;;;;;;;;;;26.90;76.90;;;27.59;41.79;98893.16;4876151;28;113348;-81
2023/09/07 11:25:41;;;;;;;;;;;27.00;76.20;;;27.71;41.72;98884.06;4851632;28;124765;-81
2023/09/07 11:28:08;;;;;;;;;;;27.10;76.20;;;27.85;41.69;98885.94;4920690;28;124590;-81
2023/09/07 11:30:57;;;;;;;;;;;27.20;75.90;;;27.94;41.57;98884.19;4930599;28;114698;-81
2023/09/07 11:33:44;;;;;;;;;;;27.30;75.70;;;28.07;41.52;98880.75;4931970;28;113568;-81
2023/09/07 11:36:16;;;;;;;;;;;27.40;75.70;;;28.25;41.14;98880.47;4926873;28;122966;-81
2023/09/07 11:38:43;;;;;;;;;;;27.60;75.50;;;28.39;40.75;98874.53;4924145;28;124027;-81
2023/09/07 11:41:27;;;;;;;;;;;27.70;74.80;;;28.48;40.58;98877.69;4930920;28;114092;-81
2023/09/07 11:44:00;;;;;;;;;;;27.80;74.20;;;28.62;40.82;98877.44;4944093;28;113735;-81
2023/09/07 11:46:36;;;;;;;;;;;27.90;74.10;;;28.78;40.15;98871.06;4943081;28;124649;-81
2023/09/07 11:49:19;;;;;;;;;;;28.10;73.70;;;28.95;39.79;98869.13;4945584;28;123629;-81
2023/09/07 11:51:46;;;;;;;;;;;28.30;73.40;;;29.12;39.50;98869.22;4943350;28;113823;-82
2023/09/07 11:54:27;;;;;;;;;;;28.40;72.70;;;29.26;39.23;98875.44;4900039;28;113488;-82
2023/09/07 11:56:53;;;;;;;;;;;28.50;72.50;;;29.45;39.28;98859.59;4895275;28;124219;-82
2023/09/07 11:59:25;;;;;;;;;;;28.70;71.90;;;29.62;38.64;98856.81;4903453;28;124539;-81
2023/09/07 12:02:06;;;;;;;;;;;28.90;71.40;;;29.71;38.25;98863.56;4897128;28;114222;-82
2023/09/07 12:04:33;;;;;;;;;;;29.00;70.90;;;29.85;38.08;98859.56;4901807;28;114293;-82
2023/09/07 12:07:30;;;;;;;;;;;29.10;70.40;;;29.98;37.82;98858.88;4902327;28;125165;-82
2023/09/07 12:10:30;;;;;;;;;;;29.30;70.10;;;30.13;37.56;98843.84;4911529;28;123811;-80
2023/09/07 12:13:02;;;;;;;;;;;29.40;70.00;;;30.31;37.38;98851.97;4914036;28;114823;-81
2023/09/07 12:15:35;;;;;;;;;;;29.60;69.30;;;30.47;37.40;98853.25;4909052;28;113921;-81
2023/09/07 12:18:07;;;;;;;;;;;29.70;68.80;;;30.59;37.23;98844.75;4913451;28;123638;-80
2023/09/07 12:20:34;;;;;;;;;;;29.90;68.50;;;30.71;36.10;98851.78;4899524;28;124093;-81
2023/09/07 12:23:04;;;;;;;;;;;30.00;67.30;;;30.74;35.94;98842.31;4904908;28;116255;-81
2023/09/07 12:25:36;;;;;;;;;;;30.10;66.50;;;30.78;35.72;98842.22;4905323;28;113462;-81
2023/09/07 12:28:11;;;;;;;;;;;30.20;66.40;;;30.89;36.13;98844.81;4889027;28;124224;-81
2023/09/07 12:30:37;;;;;;;;;;;30.30;66.20;;;31.02;35.31;98843.59;4908709;28;123675;-81
2023/09/07 12:33:35;;;;;;;;;;;30.30;65.30;;;31.12;34.96;98836.00;4944604;28;114500;-81
2023/09/07 12:36:29;;;;;;;;;;;30.40;65.20;;;31.21;35.15;98836.13;4925395;28;115041;-81
2023/09/07 12:39:37;;;;;;;;;;;30.50;64.30;;;31.33;34.73;98830.94;4936924;28;123760;-81
2023/09/07 12:42:03;;;;;;;;;;;30.70;63.90;;;31.49;33.84;98828.03;4860453;28;123951;-81
2023/09/07 12:44:30;;;;;;;;;;;30.80;62.80;;;31.60;33.25;98831.34;4871205;28;114592;-80